Weather at Southern Wisconsin Regional Airport

Public forecast

Using degrees Fahrenheit for public forecast. Weather courtesy of forecast.io.

Current aviation weather report (METAR) for Southern Wisconsin Regional Airport

Retrieved 2021/06/15 05:15 UTC (11 minutes ago):

KJVL 150515Z AUTO 00000KT 10SM CLR 15/12 A3005 RMK AO2

Aviation forecast (TAF) for Southern Wisconsin Regional Airport

Retrieved 2021-06-15 00:54 UTC (5 hours ago):

TAF KJVL 142351Z 1500/1524 06009KT P6SM SCT110 FM150300 00000KT P6SM FEW250 FM151600 03006KT P6SM FEW200 FM151800 02009KT P6SM SCT070 FM152200 06010KT P6SM SCT070